Station Historical Data
Daily Summary for June 14, 2017 Units:  English    Metric   Both
Next Day »
Daily Weekly Monthly Yearly Custom
  High: Low: Average:
Temperature: 76.8 °F 53.2 °F 65.1 °F
Dew Point: 53.8 °F 46.6 °F 50 °F
Humidity: 83% 37% 61%
Wind Speed: 11.0mph 0.0mph 1.5mph
Wind Gust: 13.0mph - -
Wind- - South
Pressure: 30.00 in 29.95 in -
Precipitation: 0.00 in    
Historical Graphs
 
 
Tabular Data for June 14, 2017
Time Temperature Dew Point Pressure Wind Wind Speed Wind Gust Humidity Rainfall Rate (Hourly) solar Conditions
00:00 58.3 °F 49.3 °F 30.00 in Calm   4.0 mph 72% 0.00 in 0.00 W/m2
00:05 58.3 °F 49.7 °F 30.00 in Calm     73% 0.00 in 0.00 W/m2
00:10 58.3 °F 49.7 °F 30.00 in Calm     73% 0.00 in 0.00 W/m2
00:15 58.2 °F 49.6 °F 30.00 in Calm   3.0 mph 73% 0.00 in 0.00 W/m2
00:20 58.2 °F 49.6 °F 30.00 in Calm   4.0 mph 73% 0.00 in 0.00 W/m2
00:25 58.1 °F 49.9 °F 30.00 in Calm   4.0 mph 74% 0.00 in 0.00 W/m2
00:30 58.0 °F 49.8 °F 30.00 in NNE 2.0 mph 4.0 mph 74% 0.00 in 0.00 W/m2
00:35 57.9 °F 49.7 °F 30.00 in NNE 3.0 mph 5.0 mph 74% 0.00 in 0.00 W/m2
00:40 57.8 °F 49.6 °F 30.00 in Calm   4.0 mph 74% 0.00 in 0.00 W/m2
00:45 57.8 °F 49.9 °F 30.00 in NNE 4.0 mph 4.0 mph 75% 0.00 in 0.00 W/m2
00:50 57.7 °F 49.8 °F 30.00 in NE 5.0 mph 7.0 mph 75% 0.00 in 0.00 W/m2
00:55 57.6 °F 49.8 °F 30.00 in ENE 4.0 mph 6.0 mph 75% 0.00 in 0.00 W/m2
01:05 57.4 °F 49.5 °F 29.99 in East 8.0 mph 9.0 mph 75% 0.00 in 0.00 W/m2
01:10 57.3 °F 49.8 °F 29.99 in East 5.0 mph 8.0 mph 76% 0.00 in 0.00 W/m2
01:15 57.2 °F 49.7 °F 29.99 in East 1.0 mph 8.0 mph 76% 0.00 in 0.00 W/m2
01:20 57.2 °F 49.7 °F 29.99 in East 6.0 mph 9.0 mph 76% 0.00 in 0.00 W/m2
01:26 57.2 °F 49.7 °F 29.99 in East 6.0 mph 8.0 mph 76% 0.00 in 0.00 W/m2
01:31 57.1 °F 49.6 °F 29.99 in East 4.0 mph 12.0 mph 76% 0.00 in 0.00 W/m2
01:34 57.1 °F 49.6 °F 29.99 in East 5.0 mph 11.0 mph 76% 0.00 in 0.00 W/m2
01:39 57.1 °F 49.6 °F 29.99 in East 5.0 mph 9.0 mph 76% 0.00 in 0.00 W/m2
01:44 57.1 °F 49.6 °F 29.99 in ESE 5.0 mph 11.0 mph 76% 0.00 in 0.00 W/m2
01:49 57.1 °F 49.6 °F 29.98 in ESE 11.0 mph 11.0 mph 76% 0.00 in 0.00 W/m2
01:54 57.1 °F 49.6 °F 29.98 in ESE 6.0 mph 9.0 mph 76% 0.00 in 0.00 W/m2
01:59 57.1 °F 49.6 °F 29.98 in East 4.0 mph 11.0 mph 76% 0.00 in 0.00 W/m2
02:04 57.1 °F 49.6 °F 29.98 in East 5.0 mph 9.0 mph 76% 0.00 in 0.00 W/m2
02:09 57.1 °F 49.6 °F 29.98 in Calm   8.0 mph 76% 0.00 in 0.00 W/m2
02:14 57.1 °F 49.6 °F 29.98 in ESE 6.0 mph 8.0 mph 76% 0.00 in 0.00 W/m2
02:19 57.0 °F 49.5 °F 29.98 in ESE 5.0 mph 7.0 mph 76% 0.00 in 0.00 W/m2
02:24 57.0 °F 49.5 °F 29.98 in ESE 4.0 mph 8.0 mph 76% 0.00 in 0.00 W/m2
02:29 57.0 °F 49.5 °F 29.98 in Calm   5.0 mph 76% 0.00 in 0.00 W/m2
02:34 57.0 °F 49.5 °F 29.98 in ESE 4.0 mph 5.0 mph 76% 0.00 in 0.00 W/m2
02:39 56.9 °F 49.4 °F 29.98 in ESE 2.0 mph 7.0 mph 76% 0.00 in 0.00 W/m2
02:44 56.9 °F 49.4 °F 29.98 in Calm   7.0 mph 76% 0.00 in 0.00 W/m2
02:49 56.8 °F 49.3 °F 29.98 in ESE 6.0 mph 6.0 mph 76% 0.00 in 0.00 W/m2
02:54 56.7 °F 49.2 °F 29.98 in Calm   6.0 mph 76% 0.00 in 0.00 W/m2
03:00 56.6 °F 49.5 °F 29.98 in Calm   1.0 mph 77% 0.00 in 0.00 W/m2
03:05 56.5 °F 49.4 °F 29.98 in ESE 1.0 mph 1.0 mph 77% 0.00 in 0.00 W/m2
03:10 56.4 °F 49.3 °F 29.98 in ESE 4.0 mph 5.0 mph 77% 0.00 in 0.00 W/m2
03:15 56.3 °F 49.2 °F 29.98 in Calm   6.0 mph 77% 0.00 in 0.00 W/m2
03:20 56.2 °F 49.1 °F 29.98 in ESE 4.0 mph 5.0 mph 77% 0.00 in 0.00 W/m2
03:30 56.0 °F 48.9 °F 29.98 in Calm   8.0 mph 77% 0.00 in 0.00 W/m2
03:35 55.9 °F 48.8 °F 29.98 in ESE 6.0 mph 8.0 mph 77% 0.00 in 0.00 W/m2
03:40 55.8 °F 48.7 °F 29.98 in ESE 5.0 mph 6.0 mph 77% 0.00 in 0.00 W/m2
03:45 55.7 °F 49.0 °F 29.98 in ESE 4.0 mph 8.0 mph 78% 0.00 in 0.00 W/m2
03:50 55.7 °F 49.0 °F 29.98 in ESE 2.0 mph 7.0 mph 78% 0.00 in 0.00 W/m2
03:55 55.6 °F 48.9 °F 29.98 in ESE 4.0 mph 7.0 mph 78% 0.00 in 0.00 W/m2
04:00 55.6 °F 48.9 °F 29.98 in Calm   8.0 mph 78% 0.00 in 0.00 W/m2
04:05 55.5 °F 48.8 °F 29.98 in ESE 5.0 mph 7.0 mph 78% 0.00 in 0.00 W/m2
04:06 55.5 °F 48.8 °F 29.98 in ESE 1.0 mph 6.0 mph 78% 0.00 in 0.00 W/m2
04:11 55.5 °F 48.8 °F 29.98 in ESE 4.0 mph 7.0 mph 78% 0.00 in 0.00 W/m2
04:16 55.4 °F 48.7 °F 29.98 in Calm     78% 0.00 in 0.00 W/m2
04:21 55.3 °F 48.6 °F 29.98 in Calm   2.0 mph 78% 0.00 in 0.00 W/m2
04:24 55.3 °F 48.6 °F 29.98 in ESE 4.0 mph 5.0 mph 78% 0.00 in 0.00 W/m2
04:29 55.2 °F 48.5 °F 29.98 in ESE 1.0 mph 6.0 mph 78% 0.00 in 0.00 W/m2
04:34 55.2 °F 48.5 °F 29.98 in ESE 5.0 mph 6.0 mph 78% 0.00 in 0.00 W/m2
04:39 55.1 °F 48.4 °F 29.98 in Calm   2.0 mph 78% 0.00 in 0.00 W/m2
04:44 55.0 °F 48.3 °F 29.98 in Calm     78% 0.00 in 0.00 W/m2
04:49 54.9 °F 48.2 °F 29.98 in Calm     78% 0.00 in 0.00 W/m2
04:54 54.8 °F 48.1 °F 29.98 in Calm     78% 0.00 in 0.00 W/m2
04:59 54.7 °F 48.0 °F 29.98 in Calm     78% 0.00 in 0.00 W/m2
05:04 54.6 °F 48.2 °F 29.98 in Calm     79% 0.00 in 0.00 W/m2
05:09 54.5 °F 48.1 °F 29.99 in Calm     79% 0.00 in 0.00 W/m2
05:14 54.4 °F 48.0 °F 29.99 in Calm     79% 0.00 in 0.00 W/m2
05:20 54.2 °F 47.8 °F 29.99 in ESE 4.0 mph 5.0 mph 79% 0.00 in 0.00 W/m2
05:25 54.2 °F 47.8 °F 29.99 in Calm   5.0 mph 79% 0.00 in 0.00 W/m2
05:29 54.1 °F 47.7 °F 29.99 in ESE 5.0 mph 6.0 mph 79% 0.00 in 0.00 W/m2
05:35 53.9 °F 47.5 °F 29.99 in ESE 4.0 mph 6.0 mph 79% 0.00 in 5.00 W/m2
05:40 53.9 °F 47.5 °F 29.99 in ESE 2.0 mph 4.0 mph 79% 0.00 in 7.00 W/m2
05:42 53.9 °F 47.9 °F 29.99 in Calm     80% 0.00 in 7.00 W/m2
05:47 53.7 °F 47.3 °F 29.99 in Calm     79% 0.00 in 9.00 W/m2
05:52 53.7 °F 47.3 °F 29.99 in Calm     79% 0.00 in 12.00 W/m2
05:57 53.6 °F 47.6 °F 29.99 in Calm     80% 0.00 in 14.00 W/m2
06:02 53.5 °F 47.5 °F 29.99 in Calm     80% 0.00 in 16.00 W/m2
06:07 53.5 °F 47.5 °F 29.99 in Calm     80% 0.00 in 18.00 W/m2
06:12 53.4 °F 47.4 °F 30.00 in Calm     80% 0.00 in 23.00 W/m2
06:17 53.4 °F 47.4 °F 29.99 in Calm     80% 0.00 in 37.00 W/m2
06:22 53.3 °F 47.3 °F 30.00 in Calm     80% 0.00 in 49.00 W/m2
06:27 53.3 °F 47.6 °F 30.00 in Calm     81% 0.00 in 63.00 W/m2
06:32 53.2 °F 47.5 °F 29.99 in Calm     81% 0.00 in 74.00 W/m2
06:37 53.2 °F 47.5 °F 30.00 in Calm     81% 0.00 in 90.00 W/m2
06:42 53.2 °F 47.5 °F 29.99 in Calm     81% 0.00 in 107.00 W/m2
06:47 53.3 °F 47.6 °F 30.00 in ESE 2.0 mph 5.0 mph 81% 0.00 in 125.00 W/m2
06:52 53.3 °F 48.0 °F 29.99 in Calm   4.0 mph 82% 0.00 in 142.00 W/m2
06:57 53.3 °F 48.0 °F 29.99 in Calm   1.0 mph 82% 0.00 in 163.00 W/m2
07:02 53.4 °F 48.0 °F 29.99 in Calm     82% 0.00 in 183.00 W/m2
07:07 53.5 °F 48.2 °F 29.99 in Calm   6.0 mph 82% 0.00 in 204.00 W/m2
07:12 53.5 °F 48.2 °F 29.99 in Calm   6.0 mph 82% 0.00 in 220.00 W/m2
07:17 53.6 °F 48.2 °F 29.99 in Calm   1.0 mph 82% 0.00 in 239.00 W/m2
07:22 53.7 °F 48.3 °F 29.99 in Calm   1.0 mph 82% 0.00 in 260.00 W/m2
07:27 53.9 °F 48.5 °F 29.99 in Calm     82% 0.00 in 279.00 W/m2
07:32 54.0 °F 48.6 °F 29.99 in Calm     82% 0.00 in 295.00 W/m2
07:37 54.1 °F 49.1 °F 29.99 in Calm     83% 0.00 in 313.00 W/m2
07:42 54.3 °F 49.3 °F 29.99 in Calm     83% 0.00 in 330.00 W/m2
07:47 54.4 °F 49.3 °F 29.99 in Calm   1.0 mph 83% 0.00 in 346.00 W/m2
07:52 54.6 °F 49.5 °F 29.99 in Calm   4.0 mph 83% 0.00 in 360.00 W/m2
07:57 54.8 °F 49.7 °F 29.99 in Calm     83% 0.00 in 376.00 W/m2
08:02 54.9 °F 49.8 °F 29.99 in Calm   1.0 mph 83% 0.00 in 394.00 W/m2
08:07 55.2 °F 50.1 °F 29.99 in Calm     83% 0.00 in 408.00 W/m2
08:12 55.4 °F 50.3 °F 29.99 in Calm   1.0 mph 83% 0.00 in 425.00 W/m2
08:17 55.8 °F 50.7 °F 29.99 in Calm   6.0 mph 83% 0.00 in 439.00 W/m2
08:22 56.0 °F 50.9 °F 29.99 in ESE 4.0 mph 4.0 mph 83% 0.00 in 457.00 W/m2
08:27 56.2 °F 50.8 °F 29.99 in ESE 1.0 mph 2.0 mph 82% 0.00 in 471.00 W/m2
08:32 56.5 °F 51.1 °F 29.99 in Calm     82% 0.00 in 487.00 W/m2
08:37 56.9 °F 51.5 °F 29.99 in Calm   1.0 mph 82% 0.00 in 501.00 W/m2
08:42 57.1 °F 51.3 °F 29.99 in Calm     81% 0.00 in 517.00 W/m2
08:47 57.5 °F 51.7 °F 29.99 in Calm   1.0 mph 81% 0.00 in 533.00 W/m2
08:52 57.9 °F 51.8 °F 29.99 in Calm     80% 0.00 in 548.00 W/m2
08:57 58.3 °F 52.2 °F 29.99 in Calm     80% 0.00 in 564.00 W/m2
09:02 58.7 °F 52.6 °F 29.99 in Calm     80% 0.00 in 578.00 W/m2
09:07 59.0 °F 52.5 °F 29.99 in Calm     79% 0.00 in 594.00 W/m2
09:12 59.3 °F 52.8 °F 29.99 in Calm     79% 0.00 in 608.00 W/m2
09:17 59.6 °F 52.4 °F 29.99 in Calm     77% 0.00 in 621.00 W/m2
09:22 59.8 °F 52.6 °F 29.99 in Calm     77% 0.00 in 635.00 W/m2
09:27 60.2 °F 52.6 °F 30.00 in Calm     76% 0.00 in 649.00 W/m2
09:32 60.7 °F 52.0 °F 30.00 in Calm     73% 0.00 in 663.00 W/m2
09:37 61.4 °F 52.7 °F 29.99 in Calm   1.0 mph 73% 0.00 in 675.00 W/m2
09:42 62.3 °F 52.8 °F 30.00 in Calm   5.0 mph 71% 0.00 in 689.00 W/m2
09:45 62.8 °F 51.7 °F 30.00 in Calm   5.0 mph 67% 0.00 in 696.00 W/m2
09:50 63.5 °F 52.0 °F 30.00 in East 3.0 mph 5.0 mph 66% 0.00 in 710.00 W/m2
09:55 64.0 °F 52.0 °F 30.00 in NW 2.0 mph 4.0 mph 65% 0.00 in 721.00 W/m2
10:00 64.5 °F 50.8 °F 30.00 in NW 5.0 mph 6.0 mph 61% 0.00 in 735.00 W/m2
10:05 64.9 °F 49.8 °F 30.00 in NW 5.0 mph 5.0 mph 58% 0.00 in 744.00 W/m2
10:10 65.2 °F 51.4 °F 29.99 in Calm   3.0 mph 61% 0.00 in 756.00 W/m2
10:15 65.5 °F 52.2 °F 30.00 in NW 2.0 mph 4.0 mph 62% 0.00 in 766.00 W/m2
10:20 65.7 °F 51.0 °F 30.00 in Calm   5.0 mph 59% 0.00 in 779.00 W/m2
10:25 66.0 °F 51.3 °F 30.00 in NW 3.0 mph 6.0 mph 59% 0.00 in 791.00 W/m2
10:30 66.3 °F 51.6 °F 30.00 in Calm   7.0 mph 59% 0.00 in 802.00 W/m2
10:35 66.7 °F 50.5 °F 30.00 in Calm   4.0 mph 56% 0.00 in 810.00 W/m2
10:40 67.1 °F 51.4 °F 30.00 in NW 2.0 mph 5.0 mph 57% 0.00 in 821.00 W/m2
10:45 67.4 °F 51.7 °F 30.00 in Calm   8.0 mph 57% 0.00 in 830.00 W/m2
10:50 67.7 °F 51.9 °F 30.00 in Calm   6.0 mph 57% 0.00 in 840.00 W/m2
10:55 68.0 °F 52.7 °F 30.00 in Calm   4.0 mph 58% 0.00 in 846.00 W/m2
11:00 68.3 °F 52.5 °F 30.00 in Calm   5.0 mph 57% 0.00 in 858.00 W/m2
11:05 68.5 °F 52.7 °F 30.00 in NW 3.0 mph 10.0 mph 57% 0.00 in 863.00 W/m2
11:10 68.8 °F 52.5 °F 30.00 in Calm   8.0 mph 56% 0.00 in 877.00 W/m2
11:15 69.0 °F 52.7 °F 30.00 in Calm   4.0 mph 56% 0.00 in 881.00 W/m2
11:21 69.2 °F 53.3 °F 30.00 in Calm     57% 0.00 in 889.00 W/m2
11:26 69.4 °F 53.0 °F 30.00 in Calm   6.0 mph 56% 0.00 in 895.00 W/m2
11:31 69.7 °F 53.8 °F 30.00 in Calm   6.0 mph 57% 0.00 in 905.00 W/m2
11:36 70.0 °F 53.6 °F 30.00 in Calm   2.0 mph 56% 0.00 in 911.00 W/m2
11:40 70.3 °F 52.4 °F 30.00 in West 3.0 mph 6.0 mph 53% 0.00 in 916.00 W/m2
11:46 70.5 °F 52.6 °F 30.00 in Calm   8.0 mph 53% 0.00 in 921.00 W/m2
11:51 70.8 °F 52.3 °F 30.00 in West 4.0 mph 6.0 mph 52% 0.00 in 926.00 W/m2
11:56 71.1 °F 52.6 °F 30.00 in Calm   10.0 mph 52% 0.00 in 932.00 W/m2
12:01 71.3 °F 52.8 °F 29.99 in Calm   5.0 mph 52% 0.00 in 933.00 W/m2
12:06 71.6 °F 52.5 °F 29.99 in Calm   6.0 mph 51% 0.00 in 940.00 W/m2
12:11 71.9 °F 52.8 °F 29.99 in Calm   5.0 mph 51% 0.00 in 942.00 W/m2
12:16 72.1 °F 53.5 °F 29.99 in West 3.0 mph 6.0 mph 52% 0.00 in 947.00 W/m2
12:21 72.5 °F 53.4 °F 29.99 in Calm   6.0 mph 51% 0.00 in 949.00 W/m2
12:26 72.7 °F 53.0 °F 29.99 in Calm   1.0 mph 50% 0.00 in 951.00 W/m2
12:31 73.0 °F 52.7 °F 29.99 in Calm   9.0 mph 49% 0.00 in 953.00 W/m2
12:36 73.2 °F 53.5 °F 29.99 in West 4.0 mph 6.0 mph 50% 0.00 in 960.00 W/m2
12:41 73.4 °F 53.1 °F 29.99 in Calm   4.0 mph 49% 0.00 in 960.00 W/m2
12:46 73.6 °F 52.7 °F 29.99 in Calm   3.0 mph 48% 0.00 in 958.00 W/m2
12:51 73.9 °F 53.6 °F 29.99 in Calm   3.0 mph 49% 0.00 in 960.00 W/m2
12:56 74.0 °F 52.5 °F 29.99 in Calm   4.0 mph 47% 0.00 in 963.00 W/m2
13:01 74.2 °F 53.8 °F 29.99 in Calm   6.0 mph 49% 0.00 in 960.00 W/m2
13:06 74.3 °F 53.4 °F 29.99 in Calm   7.0 mph 48% 0.00 in 962.00 W/m2
13:11 74.5 °F 53.5 °F 29.99 in Calm   7.0 mph 48% 0.00 in 962.00 W/m2
13:16 74.6 °F 52.5 °F 29.99 in Calm     46% 0.00 in 956.00 W/m2
13:21 74.9 °F 52.2 °F 29.99 in Calm   2.0 mph 45% 0.00 in 954.00 W/m2
13:26 75.0 °F 51.6 °F 29.98 in Calm   9.0 mph 44% 0.00 in 951.00 W/m2
13:31 75.1 °F 52.3 °F 29.99 in WNW 2.0 mph 8.0 mph 45% 0.00 in 954.00 W/m2
13:36 75.4 °F 52.0 °F 29.98 in West 4.0 mph 5.0 mph 44% 0.00 in 949.00 W/m2
13:41 75.6 °F 52.2 °F 29.98 in Calm   7.0 mph 44% 0.00 in 951.00 W/m2
13:46 76.0 °F 51.9 °F 29.98 in NW 6.0 mph 8.0 mph 43% 0.00 in 944.00 W/m2
13:51 76.0 °F 51.9 °F 29.98 in WNW 4.0 mph 12.0 mph 43% 0.00 in 944.00 W/m2
13:56 75.8 °F 51.1 °F 29.98 in NW 6.0 mph 10.0 mph 42% 0.00 in 937.00 W/m2
14:01 75.7 °F 51.6 °F 29.98 in Calm     43% 0.00 in 935.00 W/m2
14:06 75.7 °F 51.0 °F 29.98 in Calm   6.0 mph 42% 0.00 in 928.00 W/m2
14:11 75.8 °F 52.4 °F 29.98 in WSW 10.0 mph 11.0 mph 44% 0.00 in 925.00 W/m2
14:16 76.2 °F 51.5 °F 29.98 in WNW 7.0 mph 7.0 mph 42% 0.00 in 919.00 W/m2
14:21 76.7 °F 52.5 °F 29.98 in WNW 2.0 mph 2.0 mph 43% 0.00 in 912.00 W/m2
14:26 76.8 °F 51.3 °F 29.98 in Calm     41% 0.00 in 911.00 W/m2
14:31 76.7 °F 50.6 °F 29.97 in West 1.0 mph 2.0 mph 40% 0.00 in 900.00 W/m2
14:36 76.7 °F 51.9 °F 29.97 in West 1.0 mph 1.0 mph 42% 0.00 in 895.00 W/m2
14:41 76.7 °F 51.9 °F 29.97 in Calm     42% 0.00 in 886.00 W/m2
14:46 76.7 °F 51.9 °F 29.97 in Calm     42% 0.00 in 881.00 W/m2
14:51 76.8 °F 51.3 °F 29.98 in WNW 7.0 mph 7.0 mph 41% 0.00 in 872.00 W/m2
14:56 76.7 °F 51.2 °F 29.98 in WNW 4.0 mph 4.0 mph 41% 0.00 in 861.00 W/m2
15:01 76.5 °F 50.4 °F 29.97 in Calm     40% 0.00 in 853.00 W/m2
15:06 76.4 °F 49.6 °F 29.97 in Calm   4.0 mph 39% 0.00 in 849.00 W/m2
15:11 76.2 °F 50.1 °F 29.97 in Calm   4.0 mph 40% 0.00 in 838.00 W/m2
15:16 76.1 °F 50.0 °F 29.97 in Calm   2.0 mph 40% 0.00 in 826.00 W/m2
15:21 76.1 °F 50.0 °F 29.97 in NW 4.0 mph 7.0 mph 40% 0.00 in 819.00 W/m2
15:26 76.2 °F 49.5 °F 29.97 in West 5.0 mph 5.0 mph 39% 0.00 in 807.00 W/m2
15:31 76.2 °F 51.5 °F 29.97 in WNW 5.0 mph 8.0 mph 42% 0.00 in 788.00 W/m2
15:36 76.4 °F 50.3 °F 29.96 in Calm   1.0 mph 40% 0.00 in 782.00 W/m2
15:41 76.4 °F 50.3 °F 29.97 in Calm   2.0 mph 40% 0.00 in 773.00 W/m2
15:46 76.4 °F 49.6 °F 29.97 in WNW 1.0 mph 7.0 mph 39% 0.00 in 761.00 W/m2
15:51 76.4 °F 50.3 °F 29.97 in West 5.0 mph 6.0 mph 40% 0.00 in 752.00 W/m2
15:56 76.5 °F 49.7 °F 29.96 in Calm     39% 0.00 in 740.00 W/m2
16:01 76.5 °F 49.7 °F 29.97 in WNW 5.0 mph 9.0 mph 39% 0.00 in 728.00 W/m2
16:06 76.5 °F 49.7 °F 29.97 in WNW 5.0 mph 7.0 mph 39% 0.00 in 714.00 W/m2
16:08 76.5 °F 49.7 °F 29.97 in Calm   7.0 mph 39% 0.00 in 712.00 W/m2
16:13 76.4 °F 50.3 °F 29.97 in WNW 4.0 mph 7.0 mph 40% 0.00 in 696.00 W/m2
16:18 76.4 °F 50.3 °F 29.96 in West 7.0 mph 7.0 mph 40% 0.00 in 686.00 W/m2
16:23 76.3 °F 50.2 °F 29.96 in Calm   8.0 mph 40% 0.00 in 670.00 W/m2
16:28 76.3 °F 48.8 °F 29.96 in NW 5.0 mph 6.0 mph 38% 0.00 in 654.00 W/m2
16:33 76.2 °F 49.5 °F 29.96 in West 8.0 mph 9.0 mph 39% 0.00 in 640.00 W/m2
16:38 76.2 °F 49.5 °F 29.96 in Calm   8.0 mph 39% 0.00 in 631.00 W/m2
16:43 76.2 °F 49.5 °F 29.96 in Calm   6.0 mph 39% 0.00 in 619.00 W/m2
16:48 76.2 °F 48.8 °F 29.96 in West 5.0 mph 7.0 mph 38% 0.00 in 603.00 W/m2
16:53 76.3 °F 48.8 °F 29.96 in Calm   9.0 mph 38% 0.00 in 589.00 W/m2
16:58 76.4 °F 48.9 °F 29.96 in Calm   7.0 mph 38% 0.00 in 575.00 W/m2
17:03 76.5 °F 49.7 °F 29.96 in NNW 8.0 mph 11.0 mph 39% 0.00 in 559.00 W/m2
17:08 76.5 °F 50.4 °F 29.96 in WNW 3.0 mph 5.0 mph 40% 0.00 in 545.00 W/m2
17:13 76.4 °F 48.2 °F 29.96 in NNW 4.0 mph 6.0 mph 37% 0.00 in 533.00 W/m2
17:18 76.4 °F 48.9 °F 29.96 in Calm   4.0 mph 38% 0.00 in 519.00 W/m2
17:23 76.3 °F 48.8 °F 29.96 in NNW 1.0 mph 7.0 mph 38% 0.00 in 504.00 W/m2
17:28 76.2 °F 48.0 °F 29.96 in West 3.0 mph 7.0 mph 37% 0.00 in 489.00 W/m2
17:33 76.2 °F 48.8 °F 29.96 in West 1.0 mph 4.0 mph 38% 0.00 in 471.00 W/m2
17:38 76.2 °F 49.5 °F 29.95 in Calm   2.0 mph 39% 0.00 in 454.00 W/m2
17:39 76.2 °F 49.5 °F 29.96 in Calm   2.0 mph 39% 0.00 in 454.00 W/m2
17:45 76.1 °F 50.7 °F 29.95 in NW 5.0 mph 8.0 mph 41% 0.00 in 438.00 W/m2
17:50 76.0 °F 49.3 °F 29.95 in Calm   1.0 mph 39% 0.00 in 422.00 W/m2
17:55 76.0 °F 49.3 °F 29.95 in Calm   6.0 mph 39% 0.00 in 408.00 W/m2
18:00 75.9 °F 49.2 °F 29.95 in NW 4.0 mph 6.0 mph 39% 0.00 in 390.00 W/m2
18:05 75.9 °F 48.5 °F 29.95 in Calm   6.0 mph 38% 0.00 in 371.00 W/m2
18:07 75.9 °F 48.5 °F 29.95 in West 5.0 mph 6.0 mph 38% 0.00 in 366.00 W/m2
18:10 75.9 °F 49.2 °F 29.95 in Calm   8.0 mph 39% 0.00 in 353.00 W/m2
18:15 75.9 °F 49.2 °F 29.95 in Calm   7.0 mph 39% 0.00 in 341.00 W/m2
18:20 75.8 °F 49.1 °F 29.95 in Calm   3.0 mph 39% 0.00 in 323.00 W/m2
18:25 75.7 °F 47.6 °F 29.95 in Calm   4.0 mph 37% 0.00 in 306.00 W/m2
18:30 75.6 °F 49.6 °F 29.95 in Calm     40% 0.00 in 294.00 W/m2
18:35 75.5 °F 49.5 °F 29.95 in NW 1.0 mph 3.0 mph 40% 0.00 in 276.00 W/m2
18:40 75.4 °F 51.4 °F 29.95 in Calm   7.0 mph 43% 0.00 in 260.00 W/m2
18:45 75.1 °F 51.1 °F 29.95 in Calm   5.0 mph 43% 0.00 in 246.00 W/m2
18:50 74.9 °F 50.9 °F 29.95 in Calm   4.0 mph 43% 0.00 in 229.00 W/m2
18:55 74.7 °F 52.0 °F 29.95 in Calm   1.0 mph 45% 0.00 in 213.00 W/m2
19:00 74.5 °F 50.6 °F 29.95 in WNW 2.0 mph 5.0 mph 43% 0.00 in 197.00 W/m2
19:05 74.3 °F 52.2 °F 29.95 in Calm   2.0 mph 46% 0.00 in 181.00 W/m2
19:10 74.1 °F 52.0 °F 29.95 in Calm     46% 0.00 in 163.00 W/m2
19:15 73.8 °F 52.3 °F 29.95 in Calm   5.0 mph 47% 0.00 in 144.00 W/m2
19:20 73.4 °F 52.0 °F 29.95 in Calm     47% 0.00 in 128.00 W/m2
19:25 73.1 °F 52.3 °F 29.95 in Calm     48% 0.00 in 111.00 W/m2
19:30 72.7 °F 51.9 °F 29.96 in Calm     48% 0.00 in 91.00 W/m2
19:35 72.3 °F 52.1 °F 29.96 in Calm     49% 0.00 in 72.00 W/m2
19:40 72.0 °F 51.8 °F 29.96 in Calm     49% 0.00 in 58.00 W/m2
19:45 71.6 °F 52.0 °F 29.96 in Calm     50% 0.00 in 46.00 W/m2
19:50 71.2 °F 52.2 °F 29.96 in Calm     51% 0.00 in 28.00 W/m2
19:56 71.0 °F 52.0 °F 29.95 in Calm     51% 0.00 in 23.00 W/m2
20:01 70.7 °F 52.8 °F 29.96 in Calm     53% 0.00 in 16.00 W/m2
20:06 70.2 °F 52.8 °F 29.96 in Calm     54% 0.00 in 14.00 W/m2
20:11 69.7 °F 51.8 °F 29.96 in Calm     53% 0.00 in 12.00 W/m2
20:16 69.2 °F 51.4 °F 29.96 in Calm     53% 0.00 in 9.00 W/m2
20:21 68.7 °F 51.4 °F 29.96 in Calm     54% 0.00 in 7.00 W/m2
20:26 68.2 °F 50.9 °F 29.96 in Calm     54% 0.00 in 5.00 W/m2
20:31 67.8 °F 50.1 °F 29.96 in Calm     53% 0.00 in 0.00 W/m2
20:36 67.4 °F 50.2 °F 29.96 in Calm     54% 0.00 in 0.00 W/m2
20:42 67.0 °F 49.8 °F 29.96 in Calm     54% 0.00 in 0.00 W/m2
20:47 66.6 °F 50.0 °F 29.96 in Calm     55% 0.00 in 0.00 W/m2
20:52 66.3 °F 48.7 °F 29.96 in Calm     53% 0.00 in 0.00 W/m2
20:57 66.0 °F 48.9 °F 29.96 in Calm     54% 0.00 in 0.00 W/m2
21:02 65.8 °F 48.2 °F 29.96 in Calm     53% 0.00 in 0.00 W/m2
21:07 65.6 °F 48.0 °F 29.96 in Calm     53% 0.00 in 0.00 W/m2
21:12 65.4 °F 47.3 °F 29.96 in Calm     52% 0.00 in 0.00 W/m2
21:17 65.3 °F 47.8 °F 29.96 in Calm     53% 0.00 in 0.00 W/m2
21:22 65.2 °F 46.6 °F 29.97 in Calm     51% 0.00 in 0.00 W/m2
21:27 65.1 °F 47.1 °F 29.97 in Calm     52% 0.00 in 0.00 W/m2
21:32 65.1 °F 47.1 °F 29.97 in Calm     52% 0.00 in 0.00 W/m2
21:37 64.9 °F 46.9 °F 29.97 in Calm     52% 0.00 in 0.00 W/m2
21:42 64.9 °F 46.9 °F 29.97 in Calm     52% 0.00 in 0.00 W/m2
21:47 64.8 °F 46.8 °F 29.98 in Calm     52% 0.00 in 0.00 W/m2
21:52 64.7 °F 47.2 °F 29.98 in Calm     53% 0.00 in 0.00 W/m2
21:55 64.7 °F 47.2 °F 29.98 in Calm     53% 0.00 in 0.00 W/m2
22:00 64.6 °F 46.6 °F 29.98 in Calm     52% 0.00 in 0.00 W/m2
22:05 64.5 °F 47.0 °F 29.98 in Calm     53% 0.00 in 0.00 W/m2
22:10 64.5 °F 47.5 °F 29.98 in Calm     54% 0.00 in 0.00 W/m2
22:15 64.5 °F 47.0 °F 29.98 in Calm     53% 0.00 in 0.00 W/m2
22:20 64.5 °F 47.0 °F 29.98 in SE 2.0 mph 6.0 mph 53% 0.00 in 0.00 W/m2
22:25 64.4 °F 46.9 °F 29.98 in ESE 2.0 mph 5.0 mph 53% 0.00 in 0.00 W/m2
22:30 64.3 °F 47.3 °F 29.98 in ESE 1.0 mph 8.0 mph 54% 0.00 in 0.00 W/m2
22:35 64.2 °F 47.7 °F 29.98 in East 4.0 mph 7.0 mph 55% 0.00 in 0.00 W/m2
22:40 64.1 °F 48.1 °F 29.98 in Calm   8.0 mph 56% 0.00 in 0.00 W/m2
22:45 64.1 °F 48.6 °F 29.98 in Calm   7.0 mph 57% 0.00 in 0.00 W/m2
22:50 64.0 °F 48.5 °F 29.97 in Calm   7.0 mph 57% 0.00 in 0.00 W/m2
22:55 63.9 °F 48.8 °F 29.98 in ESE 5.0 mph 8.0 mph 58% 0.00 in 0.00 W/m2
23:00 63.9 °F 48.8 °F 29.97 in Calm   8.0 mph 58% 0.00 in 0.00 W/m2
23:05 63.8 °F 48.8 °F 29.98 in ESE 7.0 mph 8.0 mph 58% 0.00 in 0.00 W/m2
23:10 63.8 °F 48.8 °F 29.98 in East 6.0 mph 11.0 mph 58% 0.00 in 0.00 W/m2
23:15 63.7 °F 48.7 °F 29.98 in East 4.0 mph 11.0 mph 58% 0.00 in 0.00 W/m2
23:20 63.6 °F 48.6 °F 29.98 in Calm   13.0 mph 58% 0.00 in 0.00 W/m2
23:25 63.6 °F 49.0 °F 29.98 in ESE 5.0 mph 9.0 mph 59% 0.00 in 0.00 W/m2
23:30 63.5 °F 48.5 °F 29.98 in Calm   13.0 mph 58% 0.00 in 0.00 W/m2
23:35 63.5 °F 48.9 °F 29.98 in East 5.0 mph 11.0 mph 59% 0.00 in 0.00 W/m2
23:40 63.4 °F 49.3 °F 29.98 in East 6.0 mph 8.0 mph 60% 0.00 in 0.00 W/m2
23:45 63.4 °F 48.8 °F 29.98 in East 9.0 mph 12.0 mph 59% 0.00 in 0.00 W/m2
23:50 63.3 °F 48.7 °F 29.98 in Calm   12.0 mph 59% 0.00 in 0.00 W/m2
23:55 63.2 °F 49.1 °F 29.98 in ESE 2.0 mph 8.0 mph 60% 0.00 in 0.00 W/m2
Foresthill Weather
 WU-history PHP script courtesy of   Juneau County Weather.
powered by Cumulus v1.9.3 (1059)
Ambient Weather VWS v14.00
Top Contact Website Map Copyright © 2007 - 2018 Foresthillweather.com Never base important decisions on this or any weather information obtained from the Internet